Time;durP1;ratioP1;P1;durP2;ratioP2;P2;SDS_P1;SDS_P2;PMS_P1;PMS_P2;Temp;Humidity;BMP_temperature;BMP_pressure;BME280_temperature;BME280_humidity;BME280_pressure;Samples;Min_cycle;Max_cycle;Signal;HPM_P1;HPM_P2
2023/05/11 00:01:31;;;;;;;1.60;1.60;;;10.20;87.70;;;;;;6004753;23;20171;-77
2023/05/11 00:03:57;;;;;;;2.13;1.58;;;10.20;87.70;;;;;;6006297;23;20152;-77
2023/05/11 00:06:23;;;;;;;1.50;1.50;;;10.10;87.70;;;;;;6005624;23;20172;-77
2023/05/11 00:08:48;;;;;;;1.95;1.95;;;10.10;87.50;;;;;;6006425;23;20232;-77
2023/05/11 00:11:14;;;;;;;2.20;2.20;;;10.10;87.50;;;;;;6006106;23;20152;-76
2023/05/11 00:13:40;;;;;;;1.98;1.98;;;10.10;87.70;;;;;;6006298;23;20156;-76
2023/05/11 00:16:06;;;;;;;2.30;2.20;;;10.10;87.70;;;;;;6006250;23;20220;-76
2023/05/11 00:18:31;;;;;;;2.10;2.03;;;10.10;87.30;;;;;;6006778;23;20149;-76
2023/05/11 00:20:57;;;;;;;4.07;1.90;;;10.10;87.60;;;;;;6006598;23;20232;-76
2023/05/11 00:23:23;;;;;;;1.70;1.60;;;10.10;87.60;;;;;;6006745;23;20153;-76
2023/05/11 00:25:49;;;;;;;2.22;1.92;;;10.10;87.70;;;;;;6006539;23;20247;-77
2023/05/11 00:28:15;;;;;;;2.38;2.28;;;10.00;87.90;;;;;;6006967;23;20160;-77
2023/05/11 00:30:40;;;;;;;2.00;1.88;;;10.00;87.70;;;;;;6006434;23;20164;-77
2023/05/11 00:33:06;;;;;;;2.03;1.92;;;10.10;87.80;;;;;;6006900;23;20152;-76
2023/05/11 00:35:32;;;;;;;1.92;1.83;;;10.10;87.90;;;;;;6006463;23;20187;-76
2023/05/11 00:37:58;;;;;;;2.15;1.88;;;10.00;88.40;;;;;;6006762;23;20162;-77
2023/05/11 00:40:24;;;;;;;2.00;1.88;;;10.00;88.40;;;;;;6006619;23;20149;-77
2023/05/11 00:42:50;;;;;;;1.95;1.85;;;10.00;88.30;;;;;;6005979;23;20176;-76
2023/05/11 00:45:15;;;;;;;3.08;2.33;;;10.00;88.10;;;;;;6006816;23;20153;-77
2023/05/11 00:47:41;;;;;;;2.22;2.13;;;9.90;88.40;;;;;;6006662;23;20171;-76
2023/05/11 00:50:08;;;;;;;1.90;1.90;;;9.90;88.40;;;;;;6005757;23;20668;-77
2023/05/11 00:52:34;;;;;;;2.08;1.98;;;9.90;88.10;;;;;;6007175;23;20148;-76
2023/05/11 00:55:00;;;;;;;1.88;1.77;;;9.90;88.20;;;;;;6006780;23;20152;-76
2023/05/11 00:57:25;;;;;;;1.90;1.90;;;10.00;88.10;;;;;;6004228;23;20639;-76
2023/05/11 00:59:51;;;;;;;2.20;2.10;;;9.90;88.40;;;;;;6006323;23;20565;-76
2023/05/11 01:02:17;;;;;;;1.60;1.60;;;9.90;88.50;;;;;;6006130;23;20490;-76
2023/05/11 01:04:44;;;;;;;1.50;1.50;;;9.90;88.40;;;;;;6004927;23;20170;-76
2023/05/11 01:07:27;;;;;;;1.90;1.80;;;9.90;88.30;;;;;;6006922;23;20152;-76
2023/05/11 01:10:25;;;;;;;2.15;2.03;;;9.90;88.30;;;;;;6004314;23;20181;-76
2023/05/11 01:13:09;;;;;;;1.60;1.60;;;9.90;88.30;;;;;;5995591;23;20191;-76
2023/05/11 01:15:51;;;;;;;2.10;2.00;;;9.90;88.50;;;;;;6006447;23;20285;-76
2023/05/11 01:18:50;;;;;;;2.92;2.47;;;9.80;88.30;;;;;;6006490;23;20156;-76
2023/05/11 01:21:17;;;;;;;2.00;1.90;;;9.80;88.50;;;;;;6001022;23;20720;-76
2023/05/11 01:23:43;;;;;;;2.15;2.05;;;9.80;88.60;;;;;;6005913;23;20163;-76
2023/05/11 01:26:36;;;;;;;1.98;1.98;;;9.70;88.50;;;;;;6006099;23;20231;-76
2023/05/11 01:29:20;;;;;;;1.83;1.75;;;9.70;88.60;;;;;;6006132;23;20159;-77
2023/05/11 01:31:47;;;;;;;1.92;1.83;;;9.70;88.70;;;;;;6006324;23;20163;-76
2023/05/11 01:34:18;;;;;;;2.17;2.17;;;9.70;88.80;;;;;;6004702;23;20216;-76
2023/05/11 01:36:50;;;;;;;2.50;2.30;;;9.70;88.60;;;;;;6004526;23;20184;-77
2023/05/11 01:39:20;;;;;;;4.65;1.98;;;9.70;88.50;;;;;;6005850;23;20141;-77
2023/05/11 01:41:50;;;;;;;1.88;1.88;;;9.70;88.60;;;;;;6005947;23;20230;-77
2023/05/11 01:44:19;;;;;;;2.47;2.38;;;9.60;88.80;;;;;;6006658;23;20239;-77
2023/05/11 01:46:46;;;;;;;2.25;2.17;;;9.60;89.10;;;;;;6006305;23;20156;-77
2023/05/11 01:49:13;;;;;;;2.40;2.30;;;9.60;88.80;;;;;;6006325;23;20152;-76
2023/05/11 01:51:41;;;;;;;3.08;2.13;;;9.50;89.30;;;;;;6004458;23;20160;-76
2023/05/11 01:54:08;;;;;;;5.03;2.30;;;9.50;89.10;;;;;;6005946;23;20153;-76
2023/05/11 01:56:37;;;;;;;2.28;2.28;;;9.50;89.10;;;;;;6006093;23;20187;-76
2023/05/11 01:59:03;;;;;;;2.55;2.45;;;9.50;89.10;;;;;;6004470;23;20220;-77
2023/05/11 02:01:31;;;;;;;7.90;2.10;;;9.40;89.10;;;;;;6005811;23;20568;-76
2023/05/11 02:03:59;;;;;;;2.63;2.45;;;9.40;88.80;;;;;;6005848;23;20208;-76
2023/05/11 02:06:28;;;;;;;2.47;2.38;;;9.40;88.50;;;;;;6006635;23;20157;-76
2023/05/11 02:08:55;;;;;;;2.22;2.13;;;9.40;88.40;;;;;;6004147;23;20164;-76
2023/05/11 02:11:23;;;;;;;2.47;2.37;;;9.40;88.40;;;;;;6006703;23;20161;-76
2023/05/11 02:13:50;;;;;;;2.60;2.47;;;9.40;88.10;;;;;;6005924;23;20869;-76
2023/05/11 02:16:17;;;;;;;2.20;2.10;;;9.40;88.00;;;;;;6007665;23;20238;-76
2023/05/11 02:18:44;;;;;;;11.45;2.28;;;9.40;88.00;;;;;;6007311;23;20152;-76
2023/05/11 02:21:11;;;;;;;6.05;2.70;;;9.40;87.60;;;;;;6007978;23;20726;-76
2023/05/11 02:23:38;;;;;;;2.13;2.03;;;9.40;87.60;;;;;;6006247;23;20232;-77
2023/05/11 02:26:07;;;;;;;2.47;2.38;;;9.40;87.70;;;;;;6007433;23;20609;-76
2023/05/11 02:28:32;;;;;;;2.42;2.33;;;9.40;87.60;;;;;;6007914;23;20153;-76
2023/05/11 02:31:15;;;;;;;2.13;2.05;;;9.40;87.50;;;;;;6007647;23;20153;-76
2023/05/11 02:33:46;;;;;;;1.42;1.42;;;9.40;87.50;;;;;;6007556;23;20155;-76
2023/05/11 02:36:18;;;;;;;1.55;1.55;;;9.40;87.10;;;;;;6008192;23;20173;-77
2023/05/11 02:38:46;;;;;;;2.40;2.30;;;9.40;87.40;;;;;;6007251;23;20624;-77
2023/05/11 02:41:16;;;;;;;1.95;1.85;;;9.40;87.30;;;;;;6007488;23;20485;-76
2023/05/11 02:43:48;;;;;;;2.78;1.98;;;9.40;87.20;;;;;;6007192;23;20156;-76
2023/05/11 02:46:19;;;;;;;1.83;1.83;;;9.40;87.20;;;;;;6006063;23;20169;-77
2023/05/11 02:48:50;;;;;;;3.70;2.03;;;9.40;87.20;;;;;;6007155;23;20175;-77
2023/05/11 02:51:19;;;;;;;2.10;2.00;;;9.40;86.90;;;;;;6007346;23;20141;-76
2023/05/11 02:53:47;;;;;;;1.75;1.65;;;9.40;87.20;;;;;;6007209;23;20184;-77
2023/05/11 02:56:13;;;;;;;1.60;1.60;;;9.30;87.40;;;;;;6007303;23;20268;-76
2023/05/11 02:58:39;;;;;;;2.85;2.40;;;9.40;87.10;;;;;;6006983;23;20160;-77
2023/05/11 03:01:06;;;;;;;1.67;1.67;;;9.40;87.20;;;;;;6005348;23;20165;-76
2023/05/11 03:03:32;;;;;;;2.10;2.00;;;9.40;87.30;;;;;;6007416;23;20180;-77
2023/05/11 03:05:58;;;;;;;1.50;1.50;;;9.40;87.30;;;;;;6006934;23;20191;-76
2023/05/11 03:08:23;;;;;;;1.85;1.80;;;9.30;87.60;;;;;;6007300;23;20273;-76
2023/05/11 03:10:50;;;;;;;1.70;1.65;;;9.30;87.50;;;;;;6005629;23;20157;-76
2023/05/11 03:13:17;;;;;;;2.08;1.92;;;9.30;87.10;;;;;;6007498;23;20747;-76
2023/05/11 03:15:43;;;;;;;2.97;1.90;;;9.30;87.30;;;;;;6007538;23;20593;-76
2023/05/11 03:18:10;;;;;;;1.50;1.50;;;9.30;87.20;;;;;;6005017;23;20585;-76
2023/05/11 03:20:39;;;;;;;1.58;1.48;;;9.30;87.30;;;;;;6007263;23;20159;-76
2023/05/11 03:23:06;;;;;;;1.60;1.45;;;9.30;87.60;;;;;;6007164;23;20157;-76
2023/05/11 03:25:31;;;;;;;1.83;1.73;;;9.30;87.50;;;;;;6006837;23;20157;-76
2023/05/11 03:27:59;;;;;;;1.80;1.80;;;9.30;87.60;;;;;;6007286;23;20212;-76
2023/05/11 03:30:26;;;;;;;1.85;1.85;;;9.40;87.30;;;;;;6006836;23;20549;-76
2023/05/11 03:32:52;;;;;;;2.05;1.95;;;9.30;87.30;;;;;;6005697;23;20796;-76
2023/05/11 03:35:18;;;;;;;2.40;2.30;;;9.30;87.40;;;;;;6006814;23;20165;-76
2023/05/11 03:37:46;;;;;;;2.17;2.08;;;9.30;87.60;;;;;;6007417;23;20517;-77
2023/05/11 03:40:15;;;;;;;1.58;1.50;;;9.30;87.80;;;;;;6005511;23;20156;-77
2023/05/11 03:42:42;;;;;;;2.28;2.10;;;9.30;87.80;;;;;;6007527;23;20227;-76
2023/05/11 03:45:11;;;;;;;1.67;1.65;;;9.30;87.80;;;;;;6007211;23;20216;-77
2023/05/11 03:47:39;;;;;;;1.73;1.63;;;9.30;87.90;;;;;;6007564;23;20231;-76
2023/05/11 03:50:07;;;;;;;1.55;1.50;;;9.30;87.70;;;;;;6007188;23;20149;-77
2023/05/11 03:52:34;;;;;;;3.33;1.73;;;9.30;87.40;;;;;;6007155;23;20156;-77
2023/05/11 03:55:01;;;;;;;1.98;1.88;;;9.30;87.60;;;;;;6006952;23;20489;-77
2023/05/11 03:57:27;;;;;;;1.83;1.73;;;9.30;87.80;;;;;;6004805;23;20192;-77
2023/05/11 03:59:53;;;;;;;3.03;1.58;;;9.30;87.80;;;;;;6006151;23;20510;-76
2023/05/11 04:02:18;;;;;;;3.83;2.38;;;9.30;87.80;;;;;;6007171;23;20148;-76
2023/05/11 04:04:44;;;;;;;2.00;1.90;;;9.30;87.80;;;;;;6007272;23;20162;-76
2023/05/11 04:07:10;;;;;;;2.10;2.00;;;9.30;88.00;;;;;;6006618;23;20676;-76
2023/05/11 04:09:35;;;;;;;2.00;1.90;;;9.30;88.30;;;;;;6005189;23;20160;-76
2023/05/11 04:12:01;;;;;;;1.63;1.63;;;9.30;88.10;;;;;;6007185;23;20156;-77
2023/05/11 04:14:26;;;;;;;2.15;2.00;;;9.30;88.30;;;;;;6007272;23;20159;-76
2023/05/11 04:16:52;;;;;;;2.05;2.05;;;9.30;88.70;;;;;;6006622;23;20703;-76
2023/05/11 04:19:18;;;;;;;2.58;2.42;;;9.20;88.90;;;;;;6006205;23;20157;-77
2023/05/11 04:21:45;;;;;;;2.65;2.55;;;9.30;88.80;;;;;;6005406;23;20197;-76
2023/05/11 04:24:11;;;;;;;2.55;2.40;;;9.20;88.90;;;;;;6005488;23;20152;-76
2023/05/11 04:26:36;;;;;;;2.78;2.65;;;9.20;88.80;;;;;;6004288;23;20505;-76
2023/05/11 04:29:02;;;;;;;2.08;2.00;;;9.30;88.90;;;;;;6005799;23;20205;-77
2023/05/11 04:31:29;;;;;;;2.23;2.23;;;9.30;89.10;;;;;;6006799;23;20152;-76
2023/05/11 04:33:54;;;;;;;2.53;2.17;;;9.30;89.00;;;;;;6006738;23;20231;-79
2023/05/11 04:36:21;;;;;;;3.55;2.85;;;9.30;88.80;;;;;;6004756;23;20236;-77
2023/05/11 04:38:47;;;;;;;3.33;2.45;;;9.30;88.80;;;;;;6006873;23;20159;-77
2023/05/11 04:41:13;;;;;;;2.30;1.95;;;9.30;89.00;;;;;;6005159;23;20501;-77
2023/05/11 04:43:39;;;;;;;4.00;2.50;;;9.30;89.10;;;;;;6006701;23;20156;-77
2023/05/11 04:46:05;;;;;;;2.60;2.50;;;9.30;89.20;;;;;;6006034;23;20153;-77
2023/05/11 04:48:31;;;;;;;2.67;2.55;;;9.30;89.50;;;;;;6008014;23;20227;-77
2023/05/11 04:50:56;;;;;;;2.83;2.55;;;9.30;89.40;;;;;;6006149;23;20153;-76
2023/05/11 04:53:22;;;;;;;3.17;2.97;;;9.30;89.40;;;;;;6006398;23;20227;-78
2023/05/11 04:55:48;;;;;;;3.92;2.72;;;9.30;89.50;;;;;;6006258;23;20664;-76
2023/05/11 04:58:13;;;;;;;2.45;2.25;;;9.30;89.70;;;;;;6005882;23;20184;-76
2023/05/11 05:00:39;;;;;;;3.80;3.50;;;9.30;89.70;;;;;;6006379;23;20235;-78
2023/05/11 05:03:05;;;;;;;3.00;2.90;;;9.30;89.70;;;;;;6006712;23;20160;-79
2023/05/11 05:05:31;;;;;;;3.50;3.00;;;9.30;89.90;;;;;;6006353;23;20156;-76
2023/05/11 05:07:56;;;;;;;2.67;2.47;;;9.30;90.20;;;;;;6005092;23;20270;-78
2023/05/11 05:10:22;;;;;;;2.95;2.72;;;9.30;89.90;;;;;;6006514;23;20153;-78
2023/05/11 05:12:48;;;;;;;3.28;2.40;;;9.30;89.90;;;;;;6006331;23;20607;-78
2023/05/11 05:15:13;;;;;;;3.53;2.50;;;9.30;89.90;;;;;;6006424;23;20219;-78
2023/05/11 05:17:39;;;;;;;3.10;2.80;;;9.30;89.90;;;;;;6006091;23;20156;-77
2023/05/11 05:20:06;;;;;;;4.35;3.42;;;9.30;90.00;;;;;;6006529;23;20148;-76
2023/05/11 05:22:33;;;;;;;3.28;3.08;;;9.30;90.00;;;;;;6006272;23;20156;-77
2023/05/11 05:24:59;;;;;;;3.15;2.85;;;9.30;90.00;;;;;;6006555;23;20149;-77
2023/05/11 05:27:25;;;;;;;2.80;2.63;;;9.30;90.00;;;;;;6006094;23;20163;-77
2023/05/11 05:29:50;;;;;;;2.90;2.55;;;9.30;89.90;;;;;;6004713;23;20170;-77
2023/05/11 05:32:16;;;;;;;3.50;3.30;;;9.40;90.00;;;;;;6006296;23;20240;-76
2023/05/11 05:34:42;;;;;;;2.92;2.72;;;9.40;90.10;;;;;;6006551;23;20605;-76
2023/05/11 05:37:08;;;;;;;2.78;2.65;;;9.40;90.20;;;;;;6005392;23;20192;-76
2023/05/11 05:39:34;;;;;;;2.60;2.50;;;9.50;90.20;;;;;;6007204;23;20561;-76
2023/05/11 05:42:01;;;;;;;3.45;3.13;;;9.40;89.90;;;;;;6006345;23;20188;-77
2023/05/11 05:44:27;;;;;;;2.67;2.53;;;9.40;90.00;;;;;;6004680;23;20157;-77
2023/05/11 05:46:53;;;;;;;2.35;2.25;;;9.30;90.20;;;;;;6006061;23;20175;-77
2023/05/11 05:49:18;;;;;;;2.72;2.53;;;9.30;90.30;;;;;;6007262;23;20508;-77
2023/05/11 05:51:44;;;;;;;2.63;1.88;;;9.20;90.30;;;;;;6008001;23;20604;-77
2023/05/11 05:54:12;;;;;;;3.00;2.58;;;9.30;90.50;;;;;;6007880;23;20231;-77
2023/05/11 05:56:39;;;;;;;2.78;2.58;;;9.30;90.50;;;;;;6007715;23;20180;-77
2023/05/11 05:59:05;;;;;;;3.78;2.90;;;9.30;90.70;;;;;;6008069;23;20156;-77
2023/05/11 06:01:31;;;;;;;2.80;2.60;;;9.30;90.30;;;;;;6007640;23;20581;-76
2023/05/11 06:03:57;;;;;;;2.78;2.58;;;9.30;90.50;;;;;;6007640;23;20232;-77
2023/05/11 06:06:22;;;;;;;8.20;2.97;;;9.40;90.30;;;;;;6007267;23;20194;-76
2023/05/11 06:08:48;;;;;;;3.00;2.70;;;9.40;90.60;;;;;;6008079;23;20250;-77
2023/05/11 06:11:14;;;;;;;3.15;2.95;;;9.50;90.10;;;;;;6008184;23;20183;-77
2023/05/11 06:13:40;;;;;;;3.85;3.38;;;9.50;90.10;;;;;;6007825;23;20228;-78
2023/05/11 06:16:06;;;;;;;2.47;2.28;;;9.50;89.90;;;;;;6007856;23;20600;-78
2023/05/11 06:18:31;;;;;;;4.20;2.65;;;9.50;89.70;;;;;;6005657;23;20156;-77
2023/05/11 06:20:58;;;;;;;3.30;3.08;;;9.60;89.50;;;;;;6007432;23;20497;-77
2023/05/11 06:23:24;;;;;;;2.65;2.55;;;9.60;89.70;;;;;;6007686;23;20484;-77
2023/05/11 06:25:50;;;;;;;2.30;2.20;;;9.60;88.80;;;;;;6007611;23;20157;-77
2023/05/11 06:28:15;;;;;;;2.78;2.58;;;9.50;88.30;;;;;;6005811;23;20170;-78
2023/05/11 06:30:41;;;;;;;2.83;2.65;;;9.50;88.90;;;;;;6008788;23;20156;-77
2023/05/11 06:33:06;;;;;;;2.70;2.58;;;9.50;89.40;;;;;;6007361;23;20153;-77
2023/05/11 06:35:32;;;;;;;2.83;2.63;;;9.50;89.20;;;;;;6005482;23;20176;-77
2023/05/11 06:37:58;;;;;;;2.10;2.00;;;9.60;89.10;;;;;;6006402;23;20232;-75
2023/05/11 06:40:24;;;;;;;3.25;2.95;;;9.60;89.10;;;;;;6006563;23;20542;-76
2023/05/11 06:42:49;;;;;;;2.92;2.72;;;9.60;89.70;;;;;;6009338;23;20181;-75
2023/05/11 06:45:15;;;;;;;3.08;2.63;;;9.70;89.20;;;;;;6007357;23;20231;-75
2023/05/11 06:47:41;;;;;;;3.75;1.98;;;9.70;88.70;;;;;;6008483;23;20172;-75
2023/05/11 06:50:07;;;;;;;2.85;2.75;;;9.60;89.10;;;;;;6008356;23;20160;-75
2023/05/11 06:52:33;;;;;;;2.70;2.50;;;9.60;89.30;;;;;;6009714;23;20180;-76
2023/05/11 06:54:58;;;;;;;6.43;3.33;;;9.60;89.40;;;;;;6006846;23;20507;-75
2023/05/11 06:57:24;;;;;;;2.88;2.67;;;9.60;89.20;;;;;;6006156;23;20596;-76
2023/05/11 06:59:50;;;;;;;3.60;3.28;;;9.70;89.10;;;;;;5983112;23;20160;-76
2023/05/11 07:02:16;;;;;;;3.35;3.05;;;9.70;89.40;;;;;;6009489;23;20156;-75
2023/05/11 07:04:41;;;;;;;4.65;3.83;;;9.80;89.70;;;;;;6007009;23;20153;-75
2023/05/11 07:07:10;;;;;;;5.28;4.00;;;9.90;89.30;;;;;;6007568;23;20218;-76
2023/05/11 07:09:35;;;;;;;5.43;4.05;;;10.10;88.70;;;;;;6007798;23;20594;-76
2023/05/11 07:12:01;;;;;;;4.25;3.78;;;10.20;87.60;;;;;;6008081;23;20239;-76
2023/05/11 07:14:27;;;;;;;5.43;4.20;;;10.40;87.90;;;;;;6007808;23;20159;-76
2023/05/11 07:16:53;;;;;;;4.28;3.97;;;10.50;87.30;;;;;;6006299;23;20700;-76
2023/05/11 07:19:18;;;;;;;4.97;4.60;;;10.60;86.60;;;;;;6005104;23;20161;-77
2023/05/11 07:21:44;;;;;;;4.50;4.15;;;10.70;86.40;;;;;;6005907;23;20214;-75
2023/05/11 07:24:10;;;;;;;3.85;3.55;;;10.80;85.70;;;;;;6006301;23;20148;-74
2023/05/11 07:26:35;;;;;;;4.30;3.38;;;10.90;85.10;;;;;;6006356;23;20160;-75
2023/05/11 07:29:01;;;;;;;3.90;3.63;;;10.90;85.20;;;;;;6004381;23;20236;-75
2023/05/11 07:31:28;;;;;;;3.78;3.58;;;11.00;84.90;;;;;;6005895;23;20155;-75
2023/05/11 07:33:54;;;;;;;4.05;3.65;;;11.10;84.20;;;;;;6006892;23;20239;-76
2023/05/11 07:36:20;;;;;;;4.60;4.15;;;11.20;83.90;;;;;;6009102;23;20875;-75
2023/05/11 07:38:46;;;;;;;3.95;3.55;;;11.30;84.30;;;;;;6008020;23;20156;-76
2023/05/11 07:41:11;;;;;;;5.13;3.17;;;11.40;83.70;;;;;;6009116;23;20156;-76
2023/05/11 07:43:37;;;;;;;4.20;3.38;;;11.50;83.60;;;;;;6012492;23;20153;-76
2023/05/11 07:46:03;;;;;;;3.80;3.60;;;11.70;83.40;;;;;;6014246;23;20180;-75
2023/05/11 07:48:29;;;;;;;3.80;3.53;;;11.90;82.80;;;;;;6009529;23;20172;-76
2023/05/11 07:50:54;;;;;;;3.75;3.45;;;11.90;81.40;;;;;;6009642;23;20185;-75
2023/05/11 07:53:20;;;;;;;4.10;3.80;;;11.90;81.10;;;;;;6010206;23;20153;-75
2023/05/11 07:55:46;;;;;;;3.72;3.50;;;11.90;81.40;;;;;;6009894;23;20180;-75
2023/05/11 07:58:11;;;;;;;4.00;3.65;;;12.00;81.30;;;;;;6010026;23;20153;-75
2023/05/11 08:00:37;;;;;;;4.70;4.30;;;12.10;80.40;;;;;;6007785;23;20153;-75
2023/05/11 08:03:03;;;;;;;3.65;3.45;;;12.10;80.60;;;;;;6007750;23;20227;-76
2023/05/11 08:05:31;;;;;;;4.10;3.88;;;12.20;80.90;;;;;;6008536;23;20152;-76
2023/05/11 08:07:57;;;;;;;3.83;3.63;;;12.30;80.60;;;;;;6008689;23;20216;-77
2023/05/11 08:10:23;;;;;;;4.10;3.80;;;12.40;79.80;;;;;;6011632;23;20727;-76
2023/05/11 08:12:49;;;;;;;3.60;3.40;;;12.50;79.10;;;;;;6010381;23;20165;-76
2023/05/11 08:15:14;;;;;;;3.35;3.15;;;12.60;78.70;;;;;;6008237;23;20185;-76
2023/05/11 08:17:41;;;;;;;3.70;3.40;;;12.70;78.10;;;;;;6008494;23;20203;-76
2023/05/11 08:20:08;;;;;;;2.95;2.85;;;12.70;78.10;;;;;;6008524;23;20152;-76
2023/05/11 08:22:34;;;;;;;3.50;3.20;;;12.80;78.00;;;;;;6009418;23;20157;-77
2023/05/11 08:24:59;;;;;;;3.42;3.22;;;12.90;77.50;;;;;;6007571;23;20555;-76
2023/05/11 08:27:25;;;;;;;3.75;3.55;;;13.00;77.50;;;;;;6006347;23;20156;-77
2023/05/11 08:29:51;;;;;;;3.67;3.47;;;13.00;76.50;;;;;;6007953;23;20679;-77
2023/05/11 08:32:16;;;;;;;3.70;3.50;;;13.10;76.90;;;;;;6007924;23;20180;-77
2023/05/11 08:34:43;;;;;;;3.90;3.70;;;13.20;76.20;;;;;;6007899;23;20156;-77
2023/05/11 08:37:09;;;;;;;3.38;2.95;;;13.00;75.30;;;;;;6009888;23;20180;-77
2023/05/11 08:39:35;;;;;;;3.63;3.42;;;13.00;76.00;;;;;;6007693;23;20148;-75
2023/05/11 08:42:02;;;;;;;2.85;2.75;;;13.00;76.60;;;;;;6007729;23;20179;-76
2023/05/11 08:44:31;;;;;;;3.28;3.17;;;13.10;77.20;;;;;;6007491;23;20152;-76
2023/05/11 08:46:59;;;;;;;2.83;2.65;;;13.20;76.40;;;;;;6006805;23;20168;-76
2023/05/11 08:49:25;;;;;;;3.03;2.88;;;13.20;75.70;;;;;;6007890;23;20153;-75
2023/05/11 08:51:50;;;;;;;2.53;2.45;;;13.20;76.10;;;;;;6008064;23;20163;-76
2023/05/11 08:54:16;;;;;;;3.05;2.95;;;13.20;75.20;;;;;;6009537;23;20160;-76
2023/05/11 08:56:43;;;;;;;2.78;2.63;;;13.10;75.40;;;;;;6011454;23;20181;-76
2023/05/11 08:59:10;;;;;;;3.28;3.10;;;13.10;76.30;;;;;;6008111;23;20168;-76
2023/05/11 09:01:37;;;;;;;2.60;2.55;;;13.20;76.30;;;;;;6007171;23;20191;-76
2023/05/11 09:04:05;;;;;;;2.83;2.72;;;13.40;76.60;;;;;;6013211;23;20156;-77
2023/05/11 09:06:32;;;;;;;2.90;2.80;;;13.50;75.80;;;;;;6015000;23;20156;-77
2023/05/11 09:08:58;;;;;;;3.10;2.50;;;13.70;76.00;;;;;;6016981;23;20169;-77
2023/05/11 09:11:24;;;;;;;3.00;2.90;;;13.80;74.70;;;;;;6015260;23;20921;-78
2023/05/11 09:13:50;;;;;;;2.75;2.55;;;13.80;75.30;;;;;;6013312;23;20485;-76
2023/05/11 09:16:16;;;;;;;3.03;2.92;;;13.70;75.00;;;;;;6010345;23;20240;-76
2023/05/11 09:18:48;;;;;;;3.03;2.83;;;13.70;76.00;;;;;;6010055;23;20193;-75
2023/05/11 09:21:14;;;;;;;2.13;2.13;;;13.90;75.50;;;;;;6007682;23;20165;-75
2023/05/11 09:23:40;;;;;;;2.15;1.90;;;13.90;75.50;;;;;;6004858;23;20505;-75
2023/05/11 09:26:18;;;;;;;1.92;1.92;;;14.00;76.30;;;;;;6009013;23;20161;-76
2023/05/11 09:28:59;;;;;;;2.20;2.10;;;14.10;76.50;;;;;;6013214;23;20156;-77
2023/05/11 09:31:40;;;;;;;1.92;1.83;;;14.20;76.20;;;;;;6015348;23;20152;-77
2023/05/11 09:34:23;;;;;;;2.10;2.00;;;14.30;75.60;;;;;;6013850;23;20152;-76
2023/05/11 09:36:51;;;;;;;2.30;2.20;;;14.30;74.80;;;;;;6017316;23;20757;-77
2023/05/11 09:39:26;;;;;;;2.22;2.13;;;14.30;76.10;;;;;;6021317;23;20164;-77
2023/05/11 09:42:09;;;;;;;1.92;1.83;;;14.30;75.60;;;;;;6020060;23;20140;-78
2023/05/11 09:44:35;;;;;;;2.20;2.10;;;14.20;75.60;;;;;;6013609;23;20151;-76
2023/05/11 09:47:11;;;;;;;2.20;2.10;;;14.30;76.40;;;;;;6009542;23;20251;-75
2023/05/11 09:49:38;;;;;;;2.17;2.08;;;14.50;75.00;;;;;;6016911;23;20137;-77
2023/05/11 09:52:04;;;;;;;2.10;2.00;;;14.30;75.00;;;;;;6022050;23;20163;-76
2023/05/11 09:54:30;;;;;;;1.80;1.80;;;14.20;75.30;;;;;;6021165;23;20204;-77
2023/05/11 09:56:58;;;;;;;2.10;2.00;;;14.20;75.60;;;;;;6019046;23;20243;-77
2023/05/11 09:59:38;;;;;;;3.53;2.65;;;14.20;75.90;;;;;;6019507;23;20204;-77
2023/05/11 10:02:27;;;;;;;2.45;2.35;;;14.40;75.70;;;;;;6020736;23;20156;-77
2023/05/11 10:04:58;;;;;;;2.83;2.65;;;14.50;75.20;;;;;;6014899;23;20218;-77
2023/05/11 10:07:28;;;;;;;2.53;2.42;;;14.60;76.20;;;;;;6013988;23;20141;-77
2023/05/11 10:10:04;;;;;;;2.80;2.70;;;14.60;75.00;;;;;;6012414;23;20165;-77
2023/05/11 10:12:32;;;;;;;2.50;2.40;;;14.70;74.80;;;;;;6013135;23;20288;-76
2023/05/11 10:15:09;;;;;;;3.05;2.72;;;14.70;75.00;;;;;;6010667;23;20292;-77
2023/05/11 10:17:35;;;;;;;3.35;2.55;;;14.80;74.80;;;;;;6012646;23;20182;-77
2023/05/11 10:20:03;;;;;;;2.67;2.47;;;15.00;74.60;;;;;;6013758;23;20152;-76
2023/05/11 10:22:29;;;;;;;2.42;2.33;;;15.00;74.30;;;;;;6013512;23;20635;-76
2023/05/11 10:24:59;;;;;;;2.67;2.50;;;15.00;73.90;;;;;;6015259;23;20156;-76
2023/05/11 10:27:25;;;;;;;2.78;2.63;;;15.00;73.50;;;;;;6016263;23;20153;-77
2023/05/11 10:29:51;;;;;;;2.72;2.50;;;15.10;73.90;;;;;;6014556;23;20231;-76
2023/05/11 10:32:18;;;;;;;1.85;1.85;;;15.10;73.50;;;;;;6014581;23;20159;-76
2023/05/11 10:34:46;;;;;;;5.00;2.50;;;15.10;73.30;;;;;;6008876;23;20149;-76
2023/05/11 10:37:13;;;;;;;3.35;2.42;;;15.20;73.20;;;;;;6019261;23;20176;-77
2023/05/11 10:39:40;;;;;;;2.10;2.05;;;15.30;73.60;;;;;;6024969;23;20181;-77
2023/05/11 10:42:11;;;;;;;2.13;2.03;;;15.60;72.60;;;;;;6019659;23;20165;-77
2023/05/11 10:44:52;;;;;;;1.77;1.77;;;15.70;71.90;;;;;;6013206;23;20137;-76
2023/05/11 10:47:36;;;;;;;1.73;1.63;;;15.90;70.40;;;;;;6010055;23;20231;-77
2023/05/11 10:50:33;;;;;;;2.58;1.80;;;15.70;70.70;;;;;;6015278;23;20204;-76
2023/05/11 10:53:40;;;;;;;2.30;2.20;;;15.70;71.10;;;;;;6014534;23;20568;-76
2023/05/11 10:56:30;;;;;;;1.95;1.85;;;15.60;71.00;;;;;;5998435;23;20303;-77
2023/05/11 10:59:03;;;;;;;3.10;2.25;;;15.40;70.70;;;;;;6010126;23;20160;-77
2023/05/11 11:01:38;;;;;;;2.40;2.30;;;15.30;71.70;;;;;;6010542;23;20573;-76
2023/05/11 11:04:06;;;;;;;2.47;2.00;;;15.20;71.90;;;;;;6010147;23;20152;-76
2023/05/11 11:06:34;;;;;;;2.08;1.98;;;15.20;72.20;;;;;;6010740;23;20228;-76
2023/05/11 11:09:01;;;;;;;2.78;2.22;;;15.40;73.30;;;;;;6009141;23;20156;-76
2023/05/11 11:11:54;;;;;;;4.45;2.13;;;15.70;72.40;;;;;;6012473;23;20153;-76
2023/05/11 11:14:20;;;;;;;1.95;1.80;;;15.90;71.00;;;;;;6008139;23;20167;-76
2023/05/11 11:17:17;;;;;;;2.17;2.15;;;16.00;71.10;;;;;;6010943;23;20184;-76
2023/05/11 11:19:43;;;;;;;1.40;1.40;;;16.10;71.50;;;;;;6007871;23;20141;-76
2023/05/11 11:22:37;;;;;;;2.03;1.92;;;16.10;70.30;;;;;;6008543;23;20183;-76
2023/05/11 11:25:07;;;;;;;2.55;1.55;;;15.90;70.30;;;;;;6008424;23;20164;-77
2023/05/11 11:27:54;;;;;;;1.98;1.67;;;15.90;69.90;;;;;;6006795;23;20239;-76
2023/05/11 11:30:23;;;;;;;2.10;2.00;;;15.80;71.10;;;;;;6007671;23;20225;-76
2023/05/11 11:32:50;;;;;;;1.80;1.75;;;15.70;70.30;;;;;;6009050;23;20510;-76
2023/05/11 11:35:40;;;;;;;1.80;1.80;;;15.60;70.40;;;;;;6011042;23;20184;-77
2023/05/11 11:38:17;;;;;;;1.73;1.70;;;15.60;71.20;;;;;;6010491;23;20177;-77
2023/05/11 11:40:51;;;;;;;2.05;1.80;;;15.50;71.30;;;;;;6013388;23;20214;-76
2023/05/11 11:43:25;;;;;;;1.48;1.48;;;15.30;71.60;;;;;;6010032;23;20144;-77
2023/05/11 11:45:55;;;;;;;1.52;1.52;;;15.30;72.90;;;;;;6011640;23;20148;-77
2023/05/11 11:48:32;;;;;;;1.63;1.63;;;15.40;72.60;;;;;;6011520;23;20172;-76
2023/05/11 11:51:04;;;;;;;1.73;1.73;;;15.50;71.80;;;;;;6011788;23;20140;-75
2023/05/11 11:53:36;;;;;;;1.80;1.70;;;15.60;70.80;;;;;;6014827;23;20156;-76
2023/05/11 11:56:07;;;;;;;1.77;1.77;;;15.50;71.40;;;;;;6011881;23;20540;-76
2023/05/11 11:58:42;;;;;;;1.80;1.80;;;15.40;71.80;;;;;;6006922;23;20141;-75
2023/05/11 12:01:13;;;;;;;1.73;1.73;;;15.10;70.80;;;;;;6007119;23;20152;-76
2023/05/11 12:03:40;;;;;;;1.77;1.77;;;15.10;71.80;;;;;;6006128;23;20748;-76
2023/05/11 12:06:08;;;;;;;5.45;2.00;;;15.00;72.10;;;;;;6006811;23;20167;-77
2023/05/11 12:08:34;;;;;;;2.08;2.08;;;14.80;72.50;;;;;;6006761;23;20153;-76
2023/05/11 12:11:01;;;;;;;1.98;1.98;;;14.80;73.20;;;;;;6007668;23;20689;-77
2023/05/11 12:13:28;;;;;;;2.42;2.20;;;14.60;73.10;;;;;;6008628;23;20156;-76
2023/05/11 12:16:17;;;;;;;4.40;2.08;;;14.40;73.90;;;;;;6006595;23;20683;-76
2023/05/11 12:18:57;;;;;;;2.25;2.10;;;14.30;74.10;;;;;;6009836;23;20153;-76
2023/05/11 12:21:28;;;;;;;4.13;1.98;;;14.30;74.60;;;;;;6008980;23;20646;-76
2023/05/11 12:23:59;;;;;;;2.15;2.05;;;14.30;75.20;;;;;;6008518;23;20191;-76
2023/05/11 12:26:26;;;;;;;2.05;1.92;;;14.30;74.30;;;;;;6012007;23;20149;-76
2023/05/11 12:29:11;;;;;;;2.60;2.40;;;14.20;74.60;;;;;;6012266;23;20624;-76
2023/05/11 12:31:39;;;;;;;2.08;1.98;;;14.20;75.40;;;;;;6011397;23;20300;-77
2023/05/11 12:34:04;;;;;;;2.50;2.40;;;14.20;75.30;;;;;;6011547;23;20239;-76
2023/05/11 12:36:31;;;;;;;2.25;2.17;;;14.10;75.00;;;;;;6007402;23;20781;-76
2023/05/11 12:38:58;;;;;;;2.35;2.25;;;14.10;75.80;;;;;;6003663;23;20164;-75
2023/05/11 12:41:24;;;;;;;2.80;2.60;;;14.00;75.50;;;;;;6004475;23;20565;-75
2023/05/11 12:43:51;;;;;;;2.25;2.05;;;13.90;75.10;;;;;;6006032;23;20152;-77
2023/05/11 12:46:18;;;;;;;2.80;2.70;;;13.80;75.80;;;;;;6007357;23;20498;-76
2023/05/11 12:48:46;;;;;;;2.47;2.28;;;13.70;75.80;;;;;;6008105;23;20312;-76
2023/05/11 12:51:12;;;;;;;2.58;2.40;;;13.20;76.60;;;;;;6008014;23;20183;-76
2023/05/11 12:53:40;;;;;;;2.15;2.05;;;13.30;76.90;;;;;;6007996;23;20179;-75
2023/05/11 12:56:07;;;;;;;3.00;2.88;;;13.10;76.80;;;;;;6004282;23;20654;-75
2023/05/11 12:58:37;;;;;;;2.30;2.20;;;13.00;77.50;;;;;;6005322;23;20222;-76
2023/05/11 13:01:04;;;;;;;2.97;2.83;;;12.80;77.70;;;;;;6007655;23;20184;-76